createdAt,value
2023-02-02T00:01:25.315Z,101500.56
2023-02-02T00:03:53.350Z,101500.56
2023-02-02T00:06:22.636Z,101500.56
2023-02-02T00:08:50.088Z,101497.16
2023-02-02T00:11:19.292Z,101499.84
2023-02-02T00:13:46.844Z,101499.84
2023-02-02T00:16:26.340Z,101503.50
2023-02-02T00:18:54.678Z,101508.00
2023-02-02T00:21:22.837Z,101507.09
2023-02-02T00:23:50.414Z,101503.56
2023-02-02T00:26:19.123Z,101510.78
2023-02-02T00:28:46.527Z,101517.97
2023-02-02T00:31:13.869Z,101523.34
2023-02-02T00:33:49.642Z,101518.09
2023-02-02T00:36:18.564Z,101515.41
2023-02-02T00:38:47.156Z,101520.78
2023-02-02T00:41:14.739Z,101509.16
2023-02-02T00:43:42.272Z,101513.69
2023-02-02T00:46:18.704Z,101517.34
2023-02-02T00:48:46.551Z,101520.03
2023-02-02T00:51:13.843Z,101524.56
2023-02-02T00:53:41.108Z,101523.69
2023-02-02T00:56:08.404Z,101527.38
2023-02-02T00:58:35.760Z,101519.31
2023-02-02T01:01:03.498Z,101531.00
2023-02-02T01:03:30.827Z,101533.59
2023-02-02T01:05:58.121Z,101530.06
2023-02-02T01:08:25.959Z,101533.69
2023-02-02T01:10:53.282Z,101532.75
2023-02-02T01:13:23.115Z,101535.41
2023-02-02T01:15:55.815Z,101534.53
2023-02-02T01:18:23.109Z,101531.97
2023-02-02T01:21:12.388Z,101540.03
2023-02-02T01:23:40.140Z,101549.94
2023-02-02T01:26:11.292Z,101541.88
2023-02-02T01:28:39.364Z,101548.09
2023-02-02T01:31:13.270Z,101543.69
2023-02-02T01:33:40.850Z,101551.75
2023-02-02T01:36:12.293Z,101544.69
2023-02-02T01:38:40.239Z,101542.00
2023-02-02T01:41:08.160Z,101544.69
2023-02-02T01:43:44.283Z,101548.31
2023-02-02T01:46:20.041Z,101549.16
2023-02-02T01:48:57.577Z,101539.41
2023-02-02T01:51:31.612Z,101534.16
2023-02-02T01:54:00.727Z,101530.63
2023-02-02T01:56:40.623Z,101534.16
2023-02-02T01:59:08.244Z,101534.16
2023-02-02T02:01:35.541Z,101527.94
2023-02-02T02:04:03.174Z,101528.03
2023-02-02T02:06:31.987Z,101533.41
2023-02-02T02:09:04.818Z,101529.00
2023-02-02T02:11:34.233Z,101531.69
2023-02-02T02:14:24.222Z,101529.00
2023-02-02T02:17:30.522Z,101528.16
2023-02-02T02:20:45.141Z,101526.47
2023-02-02T02:23:58.602Z,101519.34
2023-02-02T02:27:14.355Z,101512.19
2023-02-02T02:30:15.968Z,101517.56
2023-02-02T02:32:43.390Z,101515.81
2023-02-02T02:35:16.808Z,101513.13
2023-02-02T02:37:57.561Z,101519.47
2023-02-02T02:40:54.299Z,101516.78
2023-02-02T02:43:38.437Z,101516.91
2023-02-02T02:46:06.707Z,101519.59
2023-02-02T02:48:34.142Z,101518.75
2023-02-02T02:51:46.753Z,101519.59
2023-02-02T02:54:55.344Z,101517.88
2023-02-02T02:57:50.171Z,101528.59
2023-02-02T03:00:48.207Z,101524.13
2023-02-02T03:03:29.633Z,101509.81
2023-02-02T03:06:28.137Z,101512.63
2023-02-02T03:09:18.913Z,101536.78
2023-02-02T03:11:47.159Z,101537.78
2023-02-02T03:14:14.585Z,101537.78
2023-02-02T03:16:41.902Z,101547.66
2023-02-02T03:19:09.406Z,101555.72
2023-02-02T03:21:36.657Z,101554.88
2023-02-02T03:24:04.380Z,101561.09
2023-02-02T03:26:31.792Z,101565.59
2023-02-02T03:29:00.616Z,101566.53
2023-02-02T03:31:29.558Z,101564.72
2023-02-02T03:33:56.894Z,101562.03
2023-02-02T03:36:24.259Z,101564.00
2023-02-02T03:38:51.491Z,101561.31
2023-02-02T03:41:18.788Z,101561.44
2023-02-02T03:43:46.137Z,101563.22
2023-02-02T03:46:13.477Z,101566.81
2023-02-02T03:48:40.699Z,101568.59
2023-02-02T03:51:13.776Z,101573.97
2023-02-02T03:53:44.508Z,101581.16
2023-02-02T03:56:11.689Z,101574.09
2023-02-02T03:58:39.051Z,101571.41
2023-02-02T04:01:07.961Z,101575.06
2023-02-02T04:03:35.270Z,101578.59
2023-02-02T04:06:02.631Z,101579.59
2023-02-02T04:08:31.462Z,101568.84
2023-02-02T04:10:59.636Z,101580.44
2023-02-02T04:13:26.886Z,101579.59
2023-02-02T04:15:59.234Z,101578.72
2023-02-02T04:18:27.976Z,101583.22
2023-02-02T04:21:00.331Z,101585.03
2023-02-02T04:23:29.042Z,101589.56
2023-02-02T04:25:57.337Z,101604.81
2023-02-02T04:28:25.464Z,101586.03
2023-02-02T04:30:54.508Z,101590.53
2023-02-02T04:33:23.471Z,101586.16
2023-02-02T04:35:51.421Z,101576.25
2023-02-02T04:38:18.978Z,101575.41
2023-02-02T04:40:48.493Z,101582.63
2023-02-02T04:43:16.061Z,101578.94
2023-02-02T04:45:43.558Z,101582.63
2023-02-02T04:48:15.142Z,101582.63
2023-02-02T04:50:42.378Z,101591.63
2023-02-02T04:53:09.632Z,101588.94
2023-02-02T04:55:38.504Z,101588.19
2023-02-02T04:58:06.429Z,101593.56
2023-02-02T05:00:33.826Z,101579.28
2023-02-02T05:03:01.521Z,101574.00
2023-02-02T05:05:28.915Z,101575.75
2023-02-02T05:07:56.181Z,101569.50
2023-02-02T05:10:23.754Z,101562.34
2023-02-02T05:12:53.264Z,101569.50
2023-02-02T05:15:24.556Z,101578.44
2023-02-02T05:17:52.044Z,101590.97
2023-02-02T05:20:19.324Z,101608.91
2023-02-02T05:22:49.818Z,101609.03
2023-02-02T05:25:17.533Z,101600.97
2023-02-02T05:27:45.648Z,101590.13
2023-02-02T05:30:14.280Z,101593.78
2023-02-02T05:32:41.869Z,101592.81
2023-02-02T05:35:10.011Z,101594.63
2023-02-02T05:37:37.298Z,101606.34
2023-02-02T05:40:05.104Z,101615.25
2023-02-02T05:42:32.493Z,101613.56
2023-02-02T05:44:59.811Z,101609.03
2023-02-02T05:47:27.167Z,101626.00
2023-02-02T05:49:54.470Z,101626.97
2023-02-02T05:52:24.793Z,101635.03
2023-02-02T05:54:52.093Z,101628.81
2023-02-02T05:57:19.391Z,101621.69
2023-02-02T05:59:47.247Z,101617.31
2023-02-02T06:02:14.480Z,101620.00
2023-02-02T06:04:41.742Z,101630.72
2023-02-02T06:07:09.000Z,101631.69
2023-02-02T06:09:36.347Z,101627.19
2023-02-02T06:12:03.986Z,101623.66
2023-02-02T06:14:31.380Z,101623.78
2023-02-02T06:16:58.567Z,101619.34
2023-02-02T06:19:25.896Z,101613.97
2023-02-02T06:21:53.176Z,101612.41
2023-02-02T06:24:20.466Z,101618.50
2023-02-02T06:26:47.792Z,101629.22
2023-02-02T06:29:15.097Z,101623.00
2023-02-02T06:31:42.568Z,101620.44
2023-02-02T06:34:14.665Z,101631.19
2023-02-02T06:36:42.945Z,101624.97
2023-02-02T06:39:10.399Z,101628.59
2023-02-02T06:41:37.750Z,101633.94
2023-02-02T06:44:05.025Z,101634.81
2023-02-02T06:46:32.382Z,101627.72
2023-02-02T06:48:59.761Z,101631.28
2023-02-02T06:51:27.012Z,101632.25
2023-02-02T06:53:54.333Z,101641.28
2023-02-02T06:56:22.964Z,101643.09
2023-02-02T06:58:50.194Z,101641.28
2023-02-02T07:01:17.581Z,101635.06
2023-02-02T07:03:48.377Z,101647.63
2023-02-02T07:06:24.160Z,101635.06
2023-02-02T07:09:02.355Z,101638.59
2023-02-02T07:11:38.227Z,101628.84
2023-02-02T07:14:11.102Z,101632.47
2023-02-02T07:16:38.337Z,101638.69
2023-02-02T07:19:05.633Z,101635.13
2023-02-02T07:21:36.436Z,101636.13
2023-02-02T07:24:05.754Z,101642.34
2023-02-02T07:26:35.339Z,101635.25
2023-02-02T07:29:04.468Z,101642.34
2023-02-02T07:31:34.101Z,101636.13
2023-02-02T07:34:02.896Z,101651.38
2023-02-02T07:36:30.575Z,101645.16
2023-02-02T07:38:58.022Z,101634.50
2023-02-02T07:41:25.594Z,101640.75
2023-02-02T07:43:52.939Z,101649.75
2023-02-02T07:46:20.623Z,101653.28
2023-02-02T07:48:48.290Z,101647.91
2023-02-02T07:51:17.594Z,101648.81
2023-02-02T07:53:51.281Z,101650.59
2023-02-02T07:56:21.063Z,101651.47
2023-02-02T07:58:48.408Z,101647.91
2023-02-02T08:01:16.957Z,101650.38
2023-02-02T08:03:45.309Z,101654.78
2023-02-02T08:06:16.161Z,101658.34
2023-02-02T08:08:43.420Z,101653.59
2023-02-02T08:11:12.574Z,101660.69
2023-02-02T08:13:40.536Z,101659.84
2023-02-02T08:16:08.575Z,101653.50
2023-02-02T08:18:37.031Z,101656.19
2023-02-02T08:24:05.723Z,101649.63
2023-02-02T08:26:33.595Z,101650.28
2023-02-02T08:29:07.856Z,101648.31
2023-02-02T08:31:42.813Z,101652.63
2023-02-02T08:34:11.679Z,101657.78
2023-02-02T08:36:38.983Z,101659.47
2023-02-02T08:39:08.999Z,101670.09
2023-02-02T08:41:37.361Z,101672.69
2023-02-02T08:44:11.351Z,101686.84
2023-02-02T08:46:38.987Z,101690.38
2023-02-02T08:49:06.726Z,101689.41
2023-02-02T08:51:34.076Z,101701.75
2023-02-02T08:54:01.354Z,101696.41
2023-02-02T08:56:28.636Z,101686.50
2023-02-02T08:59:03.168Z,101699.84
2023-02-02T09:01:32.903Z,101699.06
2023-02-02T09:04:06.089Z,101701.47
2023-02-02T09:06:40.847Z,101700.09
2023-02-02T09:09:11.540Z,101703.50
2023-02-02T09:11:39.294Z,101708.66
2023-02-02T09:14:07.173Z,101704.91
2023-02-02T09:16:35.498Z,101719.06
2023-02-02T09:19:03.536Z,101714.44
2023-02-02T09:21:30.806Z,101703.59
2023-02-02T09:23:58.201Z,101715.94
2023-02-02T09:26:28.019Z,101702.53
2023-02-02T09:29:02.494Z,101710.47
2023-02-02T09:31:33.247Z,101721.06
2023-02-02T09:34:02.691Z,101724.53
2023-02-02T09:36:30.643Z,101723.56
2023-02-02T09:38:58.347Z,101718.06
2023-02-02T09:41:31.678Z,101718.94
2023-02-02T09:44:16.768Z,101716.13
2023-02-02T09:46:59.278Z,101717.84
2023-02-02T09:50:05.169Z,101723.97
2023-02-02T09:52:46.525Z,101728.50
2023-02-02T09:55:23.826Z,101728.50
2023-02-02T09:57:59.347Z,101742.78
2023-02-02T10:00:42.164Z,101739.09
2023-02-02T10:03:22.441Z,101734.59
2023-02-02T10:06:18.616Z,101732.88
2023-02-02T10:08:52.200Z,101732.03
2023-02-02T10:11:22.091Z,101723.97
2023-02-02T10:13:52.786Z,101724.72
2023-02-02T10:16:22.812Z,101722.03
2023-02-02T10:18:55.326Z,101729.22
2023-02-02T10:22:00.360Z,101729.22
2023-02-02T10:24:29.785Z,101725.69
2023-02-02T10:27:04.506Z,101721.16
2023-02-02T10:29:49.629Z,101730.00
2023-02-02T10:32:27.280Z,101727.31
2023-02-02T10:35:13.642Z,101719.25
2023-02-02T10:37:50.351Z,101717.41
2023-02-02T10:40:25.003Z,101717.41
2023-02-02T10:43:30.097Z,101711.06
2023-02-02T10:45:59.743Z,101710.22
2023-02-02T10:48:35.808Z,101696.78
2023-02-02T10:51:11.297Z,101703.00
2023-02-02T10:53:38.933Z,101694.09
2023-02-02T10:56:11.675Z,101693.13
2023-02-02T10:59:07.088Z,101686.88
2023-02-02T11:01:34.567Z,101688.59
2023-02-02T11:04:20.307Z,101683.22
2023-02-02T11:06:50.733Z,101671.63
2023-02-02T11:09:21.997Z,101671.63
2023-02-02T11:11:58.257Z,101677.97
2023-02-02T11:14:45.162Z,101674.44
2023-02-02T11:17:23.718Z,101664.56
2023-02-02T11:19:51.814Z,101661.88
2023-02-02T11:22:37.300Z,101667.25
2023-02-02T11:25:29.313Z,101663.56
2023-02-02T11:27:56.816Z,101662.72
2023-02-02T11:30:27.748Z,101657.34
2023-02-02T11:32:56.516Z,101649.28
2023-02-02T11:35:26.017Z,101647.47
2023-02-02T11:37:57.908Z,101634.03
2023-02-02T11:40:34.852Z,101634.03
2023-02-02T11:43:41.953Z,101632.19
2023-02-02T11:46:32.793Z,101631.22
2023-02-02T11:49:10.390Z,101633.06
2023-02-02T11:51:37.761Z,101631.22
2023-02-02T11:54:22.318Z,101617.78
2023-02-02T11:56:54.023Z,101619.63
2023-02-02T11:59:32.470Z,101605.25
2023-02-02T12:02:30.679Z,101597.19
2023-02-02T12:05:09.997Z,101594.50
2023-02-02T12:07:37.712Z,101599.00
2023-02-02T12:10:16.716Z,101593.53
2023-02-02T12:12:49.695Z,101591.69
2023-02-02T12:15:51.599Z,101583.63
2023-02-02T12:18:38.318Z,101580.94
2023-02-02T12:21:08.542Z,101584.50
2023-02-02T12:23:56.719Z,101583.50
2023-02-02T12:26:37.023Z,101579.00
2023-02-02T12:29:16.694Z,101583.50
2023-02-02T12:31:46.769Z,101579.00
2023-02-02T12:34:37.048Z,101582.56
2023-02-02T12:37:29.982Z,101562.78
2023-02-02T12:40:16.035Z,101557.50
2023-02-02T12:42:49.551Z,101556.91
2023-02-02T12:45:43.060Z,101556.16
2023-02-02T12:48:14.129Z,101548.31
2023-02-02T12:50:54.955Z,101540.50
2023-02-02T12:53:34.075Z,101544.41
2023-02-02T12:56:17.285Z,101534.88
2023-02-02T12:58:44.548Z,101539.59
2023-02-02T13:01:18.145Z,101537.00
2023-02-02T13:04:07.137Z,101533.69
2023-02-02T13:07:00.907Z,101534.69
2023-02-02T13:09:33.974Z,101531.25
2023-02-02T13:12:05.335Z,101539.31
2023-02-02T13:14:48.185Z,101533.09
2023-02-02T13:17:22.504Z,101528.47
2023-02-02T13:19:53.925Z,101534.69
2023-02-02T13:22:37.344Z,101532.84
2023-02-02T13:25:13.629Z,101527.47
2023-02-02T13:27:42.344Z,101515.88
2023-02-02T13:30:31.426Z,101514.81
2023-02-02T13:33:02.939Z,101512.22
2023-02-02T13:35:35.291Z,101510.44
2023-02-02T13:38:15.962Z,101514.06
2023-02-02T13:40:44.138Z,101512.34
2023-02-02T13:43:39.836Z,101502.59
2023-02-02T13:46:29.574Z,101498.19
2023-02-02T13:49:16.120Z,101500.88
2023-02-02T13:52:37.597Z,101507.19
2023-02-02T13:55:28.005Z,101509.88
2023-02-02T13:58:20.438Z,101519.78
2023-02-02T14:00:56.602Z,101519.91
2023-02-02T14:03:29.937Z,101518.06
2023-02-02T14:06:07.660Z,101515.38
2023-02-02T14:08:36.167Z,101513.69
2023-02-02T14:11:07.071Z,101519.91
2023-02-02T14:14:08.833Z,101524.41
2023-02-02T14:16:35.997Z,101520.75
2023-02-02T14:19:06.499Z,101520.75
2023-02-02T14:21:33.784Z,101531.34
2023-02-02T14:24:27.320Z,101533.19
2023-02-02T14:26:58.738Z,101538.69
2023-02-02T14:29:31.766Z,101540.41
2023-02-02T14:31:59.191Z,101541.38
2023-02-02T14:34:30.133Z,101541.38
2023-02-02T14:37:26.301Z,101533.31
2023-02-02T14:40:02.962Z,101542.94
2023-02-02T14:42:56.449Z,101545.63
2023-02-02T14:45:33.697Z,101550.16
2023-02-02T14:48:25.513Z,101545.75
2023-02-02T14:50:55.751Z,101540.25
2023-02-02T14:53:26.358Z,101542.09
2023-02-02T14:56:10.732Z,101542.94
2023-02-02T14:58:38.100Z,101536.72
2023-02-02T15:01:17.429Z,101531.34
2023-02-02T15:03:47.453Z,101529.53
2023-02-02T15:06:34.314Z,101520.63
2023-02-02T15:09:20.155Z,101525.13
2023-02-02T15:12:01.096Z,101528.69
2023-02-02T15:14:47.099Z,101523.31
2023-02-02T15:17:35.931Z,101525.03
2023-02-02T15:20:21.486Z,101534.91
2023-02-02T15:23:17.341Z,101530.41
2023-02-02T15:26:01.012Z,101530.41
2023-02-02T15:28:31.285Z,101528.69
2023-02-02T15:31:39.668Z,101532.13
2023-02-02T15:34:40.813Z,101540.69
2023-02-02T15:37:15.084Z,101547.88
2023-02-02T15:39:49.120Z,101546.91
2023-02-02T15:42:44.146Z,101545.06
2023-02-02T15:45:37.912Z,101555.81
2023-02-02T15:48:30.298Z,101552.28
2023-02-02T15:51:02.160Z,101549.81
2023-02-02T15:53:54.868Z,101554.31
2023-02-02T15:56:24.830Z,101549.94
2023-02-02T15:58:55.181Z,101545.53
2023-02-02T16:01:24.145Z,101537.50
2023-02-02T16:04:47.675Z,101539.31
2023-02-02T16:07:22.048Z,101545.53
2023-02-02T16:09:49.821Z,101549.06
2023-02-02T16:12:20.147Z,101546.53
2023-02-02T16:14:50.606Z,101554.56
2023-02-02T16:17:23.425Z,101549.22
2023-02-02T16:19:57.038Z,101546.53
2023-02-02T16:22:25.411Z,101548.31
2023-02-02T16:24:56.592Z,101550.06
2023-02-02T16:27:26.509Z,101554.56
2023-02-02T16:29:56.478Z,101560.88
2023-02-02T16:32:31.035Z,101550.16
2023-02-02T16:34:59.486Z,101559.94
2023-02-02T16:37:29.515Z,101561.66
2023-02-02T16:40:15.902Z,101560.66
2023-02-02T16:42:43.246Z,101567.03
2023-02-02T16:45:34.889Z,101571.41
2023-02-02T16:48:36.355Z,101571.41
2023-02-02T16:51:05.478Z,101582.16
2023-02-02T16:53:33.685Z,101584.81
2023-02-02T16:56:02.101Z,101585.69
2023-02-02T16:58:29.727Z,101599.09
2023-02-02T17:01:12.642Z,101592.03
2023-02-02T17:03:53.384Z,101600.09
2023-02-02T17:06:50.000Z,101597.41
2023-02-02T17:09:35.663Z,101603.63
2023-02-02T17:12:09.304Z,101607.28
2023-02-02T17:14:52.170Z,101610.81
2023-02-02T17:17:19.608Z,101607.06
2023-02-02T17:19:49.456Z,101588.28
2023-02-02T17:22:20.187Z,101598.03
2023-02-02T17:24:49.735Z,101605.00
2023-02-02T17:27:27.440Z,101616.63
2023-02-02T17:29:55.565Z,101604.91
2023-02-02T17:32:24.942Z,101604.78
2023-02-02T17:34:52.478Z,101609.16
2023-02-02T17:37:19.658Z,101614.53
2023-02-02T17:39:47.222Z,101607.44
2023-02-02T17:42:28.004Z,101602.22
2023-02-02T17:44:55.340Z,101609.28
2023-02-02T17:47:22.683Z,101621.84
2023-02-02T17:49:49.953Z,101634.44
2023-02-02T17:52:17.309Z,101635.41
2023-02-02T17:54:44.548Z,101638.81
2023-02-02T17:57:12.065Z,101645.16
2023-02-02T17:59:39.325Z,101640.53
2023-02-02T18:02:07.276Z,101642.25
2023-02-02T18:04:35.911Z,101631.53
2023-02-02T18:07:03.720Z,101639.59
2023-02-02T18:09:34.075Z,101644.94
2023-02-02T18:12:01.291Z,101650.19
2023-02-02T18:14:28.637Z,101656.41
2023-02-02T18:16:56.235Z,101658.97
2023-02-02T18:19:23.599Z,101656.19
2023-02-02T18:21:50.939Z,101660.59
2023-02-02T18:24:18.251Z,101654.25
2023-02-02T18:26:45.508Z,101660.47
2023-02-02T18:29:12.879Z,101659.63
2023-02-02T18:31:42.346Z,101668.53
2023-02-02T18:34:09.707Z,101667.56
2023-02-02T18:36:37.250Z,101673.69
2023-02-02T18:39:04.459Z,101675.38
2023-02-02T18:41:31.824Z,101678.97
2023-02-02T18:43:59.081Z,101683.56
2023-02-02T18:46:27.014Z,101675.50
2023-02-02T18:48:55.659Z,101682.59
2023-02-02T18:51:22.892Z,101683.44
2023-02-02T18:53:50.268Z,101696.03
2023-02-02T18:56:17.895Z,101702.25
2023-02-02T18:58:45.263Z,101698.81
2023-02-02T19:01:19.437Z,101697.00
2023-02-02T19:03:54.812Z,101701.38
2023-02-02T19:06:40.956Z,101704.06
2023-02-02T19:09:09.139Z,101704.94
2023-02-02T19:11:45.229Z,101702.25
2023-02-02T19:14:24.377Z,101696.78
2023-02-02T19:16:52.669Z,101703.84
2023-02-02T19:19:24.710Z,101694.94
2023-02-02T19:21:59.914Z,101698.50
2023-02-02T19:24:32.502Z,101705.56
2023-02-02T19:26:59.792Z,101703.66
2023-02-02T19:29:33.511Z,101699.25
2023-02-02T19:32:14.211Z,101707.06
2023-02-02T19:34:41.808Z,101710.59
2023-02-02T19:37:24.702Z,101712.34
2023-02-02T19:40:16.090Z,101715.75
2023-02-02T19:42:49.812Z,101712.22
2023-02-02T19:45:21.325Z,101723.75
2023-02-02T19:47:51.151Z,101725.47
2023-02-02T19:50:27.692Z,101729.84
2023-02-02T19:52:55.875Z,101727.16
2023-02-02T19:55:34.758Z,101725.34
2023-02-02T19:58:14.551Z,101739.63
2023-02-02T20:00:42.658Z,101742.31
2023-02-02T20:03:15.826Z,101738.78
2023-02-02T20:05:46.142Z,101732.31
2023-02-02T20:08:30.953Z,101733.31
2023-02-02T20:11:00.727Z,101733.19
2023-02-02T20:13:53.320Z,101718.91
2023-02-02T20:16:23.540Z,101733.06
2023-02-02T20:18:54.117Z,101734.88
2023-02-02T20:21:42.011Z,101755.44
2023-02-02T20:24:26.091Z,101767.03
2023-02-02T20:27:00.606Z,101771.56
2023-02-02T20:29:37.561Z,101773.34
2023-02-02T20:32:08.103Z,101772.41
2023-02-02T20:34:41.981Z,101779.63
2023-02-02T20:37:11.897Z,101777.78
2023-02-02T20:39:47.852Z,101783.16
2023-02-02T20:42:15.423Z,101776.03
2023-02-02T20:44:42.783Z,101780.22
2023-02-02T20:47:10.297Z,101782.91
2023-02-02T20:49:38.553Z,101780.97
2023-02-02T20:52:10.703Z,101794.28
2023-02-02T20:54:39.305Z,101796.88
2023-02-02T20:57:06.777Z,101798.59
2023-02-02T20:59:34.080Z,101802.91
2023-02-02T21:02:02.193Z,101811.81
2023-02-02T21:04:29.619Z,101814.50
2023-02-02T21:06:59.380Z,101820.94
2023-02-02T21:09:26.833Z,101820.09
2023-02-02T21:11:54.253Z,101828.88
2023-02-02T21:14:21.523Z,101820.72
2023-02-02T21:16:48.788Z,101826.97
2023-02-02T21:19:16.065Z,101836.66
2023-02-02T21:21:43.397Z,101832.13
2023-02-02T21:24:10.849Z,101835.53
2023-02-02T21:26:38.144Z,101843.59
2023-02-02T21:29:05.515Z,101843.59
2023-02-02T21:31:35.270Z,101856.94
2023-02-02T21:34:02.891Z,101853.50
2023-02-02T21:36:36.360Z,101853.38
2023-02-02T21:39:22.825Z,101864.13
2023-02-02T21:41:55.223Z,101865.88
2023-02-02T21:44:22.618Z,101873.94
2023-02-02T21:46:51.393Z,101876.63
2023-02-02T21:49:22.793Z,101863.91
2023-02-02T21:51:50.930Z,101875.50
2023-02-02T21:54:18.153Z,101874.56
2023-02-02T21:56:45.443Z,101870.06
2023-02-02T21:59:20.038Z,101868.22
2023-02-02T22:01:48.877Z,101863.69
2023-02-02T22:04:20.919Z,101869.06
2023-02-02T22:06:54.597Z,101864.25
2023-02-02T22:09:27.449Z,101874.13
2023-02-02T22:12:01.705Z,101877.69
2023-02-02T22:14:39.752Z,101877.69
2023-02-02T22:17:22.300Z,101883.91
2023-02-02T22:20:01.298Z,101887.38
2023-02-02T22:22:35.787Z,101894.44
2023-02-02T22:25:04.787Z,101886.38
2023-02-02T22:27:53.147Z,101896.16
2023-02-02T22:30:27.504Z,101895.19
2023-02-02T22:32:55.305Z,101899.63
2023-02-02T22:35:22.615Z,101899.63
2023-02-02T22:37:51.406Z,101899.72
2023-02-02T22:40:22.437Z,101898.75
2023-02-02T22:42:51.016Z,101893.38
2023-02-02T22:45:18.660Z,101891.63
2023-02-02T22:47:49.620Z,101895.09
2023-02-02T22:50:18.690Z,101901.44
2023-02-02T22:52:46.226Z,101900.47
2023-02-02T22:55:13.765Z,101902.31
2023-02-02T22:57:41.178Z,101908.53
2023-02-02T23:00:14.469Z,101899.63
2023-02-02T23:02:41.885Z,101895.94
2023-02-02T23:05:12.299Z,101898.84
2023-02-02T23:07:39.975Z,101904.34
2023-02-02T23:10:07.906Z,101891.25
2023-02-02T23:12:35.222Z,101893.94
2023-02-02T23:15:02.931Z,101909.06
2023-02-02T23:17:31.793Z,101916.16
2023-02-02T23:19:59.172Z,101917.00
2023-02-02T23:22:26.523Z,101917.00
2023-02-02T23:24:53.931Z,101923.25
2023-02-02T23:27:21.490Z,101917.88
2023-02-02T23:29:48.783Z,101938.44
2023-02-02T23:32:16.265Z,101943.81
2023-02-02T23:34:43.581Z,101947.34
2023-02-02T23:37:10.821Z,101952.72
2023-02-02T23:39:38.074Z,101952.72
2023-02-02T23:42:05.509Z,101963.47
2023-02-02T23:44:32.960Z,101958.94
2023-02-02T23:47:01.912Z,101941.97
2023-02-02T23:49:31.441Z,101943.81
2023-02-02T23:51:59.255Z,101948.19
2023-02-02T23:54:27.670Z,101947.34
2023-02-02T23:56:56.083Z,101956.13
2023-02-02T23:59:23.344Z,101952.72
